sensor_id;sensor_type;location;lat;lon;timestamp;P1;durP1;ratioP1;P2;durP2;ratioP2
17496;SDS011;62150;43.582;1.456;2024-03-06T04:39:11;1.00;;;1.00;;
17496;SDS011;62150;43.582;1.456;2024-03-06T04:41:38;2.77;;;1.20;;
17496;SDS011;62150;43.582;1.456;2024-03-06T04:44:06;1.37;;;1.20;;
17496;SDS011;62150;43.582;1.456;2024-03-06T04:46:33;2.57;;;1.30;;
17496;SDS011;62150;43.582;1.456;2024-03-06T04:49:01;2.73;;;1.50;;
17496;SDS011;62150;43.582;1.456;2024-03-06T04:51:28;2.87;;;1.20;;
17496;SDS011;62150;43.582;1.456;2024-03-06T04:53:56;3.53;;;1.47;;
17496;SDS011;62150;43.582;1.456;2024-03-06T04:56:25;2.20;;;1.40;;
17496;SDS011;62150;43.582;1.456;2024-03-06T04:58:52;2.13;;;1.40;;
17496;SDS011;62150;43.582;1.456;2024-03-06T05:01:20;1.30;;;1.20;;
17496;SDS011;62150;43.582;1.456;2024-03-06T05:03:47;1.93;;;1.20;;
17496;SDS011;62150;43.582;1.456;2024-03-06T05:06:15;2.17;;;1.30;;
17496;SDS011;62150;43.582;1.456;2024-03-06T05:08:43;3.77;;;1.30;;
17496;SDS011;62150;43.582;1.456;2024-03-06T05:11:10;3.43;;;1.60;;
17496;SDS011;62150;43.582;1.456;2024-03-06T05:13:39;2.40;;;1.17;;
17496;SDS011;62150;43.582;1.456;2024-03-06T05:16:07;2.13;;;1.27;;
17496;SDS011;62150;43.582;1.456;2024-03-06T05:18:35;2.50;;;1.37;;
17496;SDS011;62150;43.582;1.456;2024-03-06T05:21:02;3.17;;;1.27;;
17496;SDS011;62150;43.582;1.456;2024-03-06T05:23:30;1.77;;;1.50;;
17496;SDS011;62150;43.582;1.456;2024-03-06T05:25:58;2.37;;;1.40;;
17496;SDS011;62150;43.582;1.456;2024-03-06T05:28:26;3.50;;;1.50;;
17496;SDS011;62150;43.582;1.456;2024-03-06T05:30:55;2.40;;;1.40;;
17496;SDS011;62150;43.582;1.456;2024-03-06T05:33:23;3.90;;;1.67;;
17496;SDS011;62150;43.582;1.456;2024-03-06T05:35:51;3.47;;;1.67;;
17496;SDS011;62150;43.582;1.456;2024-03-06T05:38:19;3.23;;;1.50;;
17496;SDS011;62150;43.582;1.456;2024-03-06T05:40:47;3.23;;;1.60;;
17496;SDS011;62150;43.582;1.456;2024-03-06T05:43:15;4.73;;;1.50;;
17496;SDS011;62150;43.582;1.456;2024-03-06T05:45:42;2.27;;;1.60;;
17496;SDS011;62150;43.582;1.456;2024-03-06T05:48:11;3.00;;;1.47;;
17496;SDS011;62150;43.582;1.456;2024-03-06T05:50:39;2.47;;;1.40;;
17496;SDS011;62150;43.582;1.456;2024-03-06T05:53:07;4.10;;;1.50;;
17496;SDS011;62150;43.582;1.456;2024-03-06T05:55:34;2.93;;;1.67;;
17496;SDS011;62150;43.582;1.456;2024-03-06T05:58:01;4.90;;;1.50;;
17496;SDS011;62150;43.582;1.456;2024-03-06T06:00:30;3.20;;;1.50;;
17496;SDS011;62150;43.582;1.456;2024-03-06T06:02:58;2.70;;;1.70;;
17496;SDS011;62150;43.582;1.456;2024-03-06T06:05:27;4.13;;;1.70;;
17496;SDS011;62150;43.582;1.456;2024-03-06T06:07:54;3.90;;;1.77;;
17496;SDS011;62150;43.582;1.456;2024-03-06T06:10:22;4.73;;;2.10;;
17496;SDS011;62150;43.582;1.456;2024-03-06T06:12:49;5.17;;;1.80;;
17496;SDS011;62150;43.582;1.456;2024-03-06T06:15:17;5.07;;;2.27;;
17496;SDS011;62150;43.582;1.456;2024-03-06T06:17:45;4.47;;;1.80;;
17496;SDS011;62150;43.582;1.456;2024-03-06T06:20:12;3.13;;;1.70;;
17496;SDS011;62150;43.582;1.456;2024-03-06T06:22:41;5.97;;;1.90;;
17496;SDS011;62150;43.582;1.456;2024-03-06T06:25:09;4.90;;;2.00;;
17496;SDS011;62150;43.582;1.456;2024-03-06T06:27:37;3.93;;;1.90;;
17496;SDS011;62150;43.582;1.456;2024-03-06T06:30:05;5.80;;;2.00;;
17496;SDS011;62150;43.582;1.456;2024-03-06T06:32:36;5.20;;;1.80;;
17496;SDS011;62150;43.582;1.456;2024-03-06T06:35:05;5.17;;;1.80;;
17496;SDS011;62150;43.582;1.456;2024-03-06T06:37:34;3.50;;;1.80;;
17496;SDS011;62150;43.582;1.456;2024-03-06T06:40:03;6.07;;;2.40;;
17496;SDS011;62150;43.582;1.456;2024-03-06T06:42:32;7.30;;;2.40;;
17496;SDS011;62150;43.582;1.456;2024-03-06T06:45:00;3.80;;;2.10;;
17496;SDS011;62150;43.582;1.456;2024-03-06T06:47:28;6.97;;;2.10;;
17496;SDS011;62150;43.582;1.456;2024-03-06T06:49:56;7.27;;;2.30;;
17496;SDS011;62150;43.582;1.456;2024-03-06T06:52:23;5.63;;;2.20;;
17496;SDS011;62150;43.582;1.456;2024-03-06T06:54:52;5.87;;;2.20;;
17496;SDS011;62150;43.582;1.456;2024-03-06T06:57:22;6.60;;;2.63;;
17496;SDS011;62150;43.582;1.456;2024-03-06T06:59:49;6.37;;;2.70;;
17496;SDS011;62150;43.582;1.456;2024-03-06T07:02:18;7.40;;;2.60;;
17496;SDS011;62150;43.582;1.456;2024-03-06T07:04:45;8.50;;;2.80;;
17496;SDS011;62150;43.582;1.456;2024-03-06T07:07:13;6.57;;;2.43;;
17496;SDS011;62150;43.582;1.456;2024-03-06T07:09:42;6.70;;;2.33;;
17496;SDS011;62150;43.582;1.456;2024-03-06T07:12:09;5.37;;;2.27;;
17496;SDS011;62150;43.582;1.456;2024-03-06T07:14:38;7.13;;;2.50;;
17496;SDS011;62150;43.582;1.456;2024-03-06T07:17:06;6.03;;;2.30;;
17496;SDS011;62150;43.582;1.456;2024-03-06T07:19:34;6.37;;;2.30;;
17496;SDS011;62150;43.582;1.456;2024-03-06T07:22:02;6.43;;;2.20;;
17496;SDS011;62150;43.582;1.456;2024-03-06T07:24:29;5.50;;;2.40;;
17496;SDS011;62150;43.582;1.456;2024-03-06T07:26:57;7.40;;;2.27;;
17496;SDS011;62150;43.582;1.456;2024-03-06T07:29:26;6.83;;;2.10;;
17496;SDS011;62150;43.582;1.456;2024-03-06T07:31:55;6.43;;;2.20;;
17496;SDS011;62150;43.582;1.456;2024-03-06T07:34:23;5.73;;;2.37;;
17496;SDS011;62150;43.582;1.456;2024-03-06T07:36:50;5.73;;;2.20;;
17496;SDS011;62150;43.582;1.456;2024-03-06T07:39:18;8.30;;;2.57;;
17496;SDS011;62150;43.582;1.456;2024-03-06T07:41:46;5.97;;;2.50;;
17496;SDS011;62150;43.582;1.456;2024-03-06T07:44:16;6.63;;;2.40;;
17496;SDS011;62150;43.582;1.456;2024-03-06T07:46:45;7.43;;;2.30;;
17496;SDS011;62150;43.582;1.456;2024-03-06T07:49:14;8.07;;;2.60;;
17496;SDS011;62150;43.582;1.456;2024-03-06T07:51:41;7.83;;;2.40;;
17496;SDS011;62150;43.582;1.456;2024-03-06T07:54:09;5.63;;;2.17;;
17496;SDS011;62150;43.582;1.456;2024-03-06T07:56:37;5.27;;;2.20;;
17496;SDS011;62150;43.582;1.456;2024-03-06T07:59:04;5.17;;;2.17;;
17496;SDS011;62150;43.582;1.456;2024-03-06T08:01:32;7.03;;;2.30;;
17496;SDS011;62150;43.582;1.456;2024-03-06T08:04:00;6.50;;;2.20;;
17496;SDS011;62150;43.582;1.456;2024-03-06T08:06:29;6.70;;;2.53;;
17496;SDS011;62150;43.582;1.456;2024-03-06T08:08:58;4.83;;;2.30;;
17496;SDS011;62150;43.582;1.456;2024-03-06T08:11:27;7.97;;;2.37;;
17496;SDS011;62150;43.582;1.456;2024-03-06T08:13:56;6.33;;;2.50;;
17496;SDS011;62150;43.582;1.456;2024-03-06T08:16:24;6.80;;;2.50;;
17496;SDS011;62150;43.582;1.456;2024-03-06T08:18:52;6.63;;;2.30;;
17496;SDS011;62150;43.582;1.456;2024-03-06T08:21:19;7.87;;;2.37;;
17496;SDS011;62150;43.582;1.456;2024-03-06T08:23:49;6.87;;;2.50;;
17496;SDS011;62150;43.582;1.456;2024-03-06T08:26:17;6.40;;;2.40;;
17496;SDS011;62150;43.582;1.456;2024-03-06T08:28:45;10.13;;;2.57;;
17496;SDS011;62150;43.582;1.456;2024-03-06T08:31:14;6.03;;;2.30;;
17496;SDS011;62150;43.582;1.456;2024-03-06T08:33:41;5.40;;;2.10;;
17496;SDS011;62150;43.582;1.456;2024-03-06T08:36:09;6.13;;;2.30;;
17496;SDS011;62150;43.582;1.456;2024-03-06T08:38:38;5.13;;;2.33;;
17496;SDS011;62150;43.582;1.456;2024-03-06T08:41:08;6.17;;;2.20;;
17496;SDS011;62150;43.582;1.456;2024-03-06T08:43:37;5.77;;;2.20;;
17496;SDS011;62150;43.582;1.456;2024-03-06T08:46:05;8.03;;;2.23;;
17496;SDS011;62150;43.582;1.456;2024-03-06T08:48:32;8.53;;;2.57;;
17496;SDS011;62150;43.582;1.456;2024-03-06T08:51:00;7.00;;;2.37;;
17496;SDS011;62150;43.582;1.456;2024-03-06T08:53:30;7.20;;;2.40;;
17496;SDS011;62150;43.582;1.456;2024-03-06T08:55:58;7.23;;;2.33;;
17496;SDS011;62150;43.582;1.456;2024-03-06T08:58:27;5.13;;;2.40;;
17496;SDS011;62150;43.582;1.456;2024-03-06T09:00:54;7.10;;;2.40;;
17496;SDS011;62150;43.582;1.456;2024-03-06T09:03:24;7.23;;;2.53;;
17496;SDS011;62150;43.582;1.456;2024-03-06T09:05:51;5.40;;;2.30;;
17496;SDS011;62150;43.582;1.456;2024-03-06T09:08:19;6.73;;;2.20;;
17496;SDS011;62150;43.582;1.456;2024-03-06T09:10:46;8.90;;;2.50;;
17496;SDS011;62150;43.582;1.456;2024-03-06T09:13:14;8.00;;;2.60;;
17496;SDS011;62150;43.582;1.456;2024-03-06T09:15:43;5.33;;;2.33;;
17496;SDS011;62150;43.582;1.456;2024-03-06T09:18:10;4.93;;;2.40;;
17496;SDS011;62150;43.582;1.456;2024-03-06T09:20:38;7.27;;;2.50;;
17496;SDS011;62150;43.582;1.456;2024-03-06T09:23:05;11.00;;;2.90;;
17496;SDS011;62150;43.582;1.456;2024-03-06T09:25:33;7.63;;;2.17;;
17496;SDS011;62150;43.582;1.456;2024-03-06T09:28:00;7.20;;;2.37;;
17496;SDS011;62150;43.582;1.456;2024-03-06T09:30:29;7.07;;;2.30;;
17496;SDS011;62150;43.582;1.456;2024-03-06T09:32:58;7.63;;;2.43;;
17496;SDS011;62150;43.582;1.456;2024-03-06T09:35:26;6.93;;;2.60;;
17496;SDS011;62150;43.582;1.456;2024-03-06T09:37:53;5.90;;;2.40;;
17496;SDS011;62150;43.582;1.456;2024-03-06T09:40:23;7.20;;;2.47;;
17496;SDS011;62150;43.582;1.456;2024-03-06T09:42:50;5.47;;;2.27;;
17496;SDS011;62150;43.582;1.456;2024-03-06T09:45:19;5.53;;;2.20;;
17496;SDS011;62150;43.582;1.456;2024-03-06T09:47:47;5.77;;;2.43;;
17496;SDS011;62150;43.582;1.456;2024-03-06T09:50:18;6.60;;;2.37;;
17496;SDS011;62150;43.582;1.456;2024-03-06T09:52:51;8.20;;;2.60;;
17496;SDS011;62150;43.582;1.456;2024-03-06T09:55:21;5.43;;;2.33;;
17496;SDS011;62150;43.582;1.456;2024-03-06T09:57:49;9.27;;;2.80;;
17496;SDS011;62150;43.582;1.456;2024-03-06T10:00:17;7.33;;;2.40;;
17496;SDS011;62150;43.582;1.456;2024-03-06T10:02:47;8.83;;;2.57;;
17496;SDS011;62150;43.582;1.456;2024-03-06T10:05:22;10.70;;;2.60;;
17496;SDS011;62150;43.582;1.456;2024-03-06T10:07:50;5.87;;;2.43;;
17496;SDS011;62150;43.582;1.456;2024-03-06T10:10:18;7.73;;;2.40;;
17496;SDS011;62150;43.582;1.456;2024-03-06T10:12:47;10.63;;;2.63;;
17496;SDS011;62150;43.582;1.456;2024-03-06T10:15:15;10.77;;;2.67;;
17496;SDS011;62150;43.582;1.456;2024-03-06T10:17:43;9.57;;;2.57;;
17496;SDS011;62150;43.582;1.456;2024-03-06T10:20:22;8.20;;;2.53;;
17496;SDS011;62150;43.582;1.456;2024-03-06T10:22:51;7.87;;;2.47;;
17496;SDS011;62150;43.582;1.456;2024-03-06T10:25:20;6.33;;;2.13;;
17496;SDS011;62150;43.582;1.456;2024-03-06T10:28:02;7.97;;;2.30;;
17496;SDS011;62150;43.582;1.456;2024-03-06T10:30:30;7.17;;;2.30;;
17496;SDS011;62150;43.582;1.456;2024-03-06T10:33:00;7.33;;;2.03;;
17496;SDS011;62150;43.582;1.456;2024-03-06T10:35:30;10.00;;;2.70;;
17496;SDS011;62150;43.582;1.456;2024-03-06T10:37:57;8.80;;;2.60;;
17496;SDS011;62150;43.582;1.456;2024-03-06T10:40:27;8.63;;;2.43;;
17496;SDS011;62150;43.582;1.456;2024-03-06T10:42:58;9.40;;;2.73;;
17496;SDS011;62150;43.582;1.456;2024-03-06T10:45:30;7.00;;;2.40;;
17496;SDS011;62150;43.582;1.456;2024-03-06T10:48:06;7.83;;;2.80;;
17496;SDS011;62150;43.582;1.456;2024-03-06T10:50:38;7.37;;;2.60;;
17496;SDS011;62150;43.582;1.456;2024-03-06T10:53:09;11.03;;;2.80;;
17496;SDS011;62150;43.582;1.456;2024-03-06T10:55:38;6.70;;;2.10;;
17496;SDS011;62150;43.582;1.456;2024-03-06T10:58:06;8.77;;;2.37;;
17496;SDS011;62150;43.582;1.456;2024-03-06T11:00:35;7.10;;;2.27;;
17496;SDS011;62150;43.582;1.456;2024-03-06T11:03:05;6.17;;;2.50;;
17496;SDS011;62150;43.582;1.456;2024-03-06T11:05:34;10.43;;;2.50;;
17496;SDS011;62150;43.582;1.456;2024-03-06T11:08:06;8.10;;;2.50;;
17496;SDS011;62150;43.582;1.456;2024-03-06T11:10:36;10.73;;;2.40;;
17496;SDS011;62150;43.582;1.456;2024-03-06T11:13:08;6.37;;;2.57;;
17496;SDS011;62150;43.582;1.456;2024-03-06T11:15:47;6.53;;;2.27;;
17496;SDS011;62150;43.582;1.456;2024-03-06T11:27:00;6.97;;;2.37;;
17496;SDS011;62150;43.582;1.456;2024-03-06T11:32:29;6.83;;;2.23;;
17496;SDS011;62150;43.582;1.456;2024-03-06T11:34:57;8.83;;;2.30;;
17496;SDS011;62150;43.582;1.456;2024-03-06T11:37:25;9.50;;;2.40;;
17496;SDS011;62150;43.582;1.456;2024-03-06T11:39:59;6.20;;;2.13;;
17496;SDS011;62150;43.582;1.456;2024-03-06T11:42:32;7.20;;;2.13;;
17496;SDS011;62150;43.582;1.456;2024-03-06T11:45:11;7.37;;;2.13;;
17496;SDS011;62150;43.582;1.456;2024-03-06T11:47:57;8.73;;;2.20;;
17496;SDS011;62150;43.582;1.456;2024-03-06T11:50:27;5.10;;;2.37;;
17496;SDS011;62150;43.582;1.456;2024-03-06T11:52:56;4.50;;;2.00;;
17496;SDS011;62150;43.582;1.456;2024-03-06T11:55:26;6.73;;;2.30;;
17496;SDS011;62150;43.582;1.456;2024-03-06T11:57:53;6.07;;;2.03;;
17496;SDS011;62150;43.582;1.456;2024-03-06T12:00:21;8.43;;;2.00;;
17496;SDS011;62150;43.582;1.456;2024-03-06T12:02:49;5.50;;;2.00;;
17496;SDS011;62150;43.582;1.456;2024-03-06T12:05:17;7.00;;;2.17;;
17496;SDS011;62150;43.582;1.456;2024-03-06T12:07:46;8.57;;;2.40;;
17496;SDS011;62150;43.582;1.456;2024-03-06T12:10:14;8.47;;;2.43;;
17496;SDS011;62150;43.582;1.456;2024-03-06T12:12:43;6.63;;;2.17;;
17496;SDS011;62150;43.582;1.456;2024-03-06T12:15:11;7.70;;;2.20;;
17496;SDS011;62150;43.582;1.456;2024-03-06T12:17:42;6.77;;;2.10;;
17496;SDS011;62150;43.582;1.456;2024-03-06T12:20:11;7.33;;;2.20;;
17496;SDS011;62150;43.582;1.456;2024-03-06T12:22:44;5.20;;;2.17;;
17496;SDS011;62150;43.582;1.456;2024-03-06T12:25:17;5.50;;;1.90;;
17496;SDS011;62150;43.582;1.456;2024-03-06T12:27:47;7.93;;;2.30;;
17496;SDS011;62150;43.582;1.456;2024-03-06T12:30:16;6.60;;;2.10;;
17496;SDS011;62150;43.582;1.456;2024-03-06T12:32:44;3.47;;;1.93;;
17496;SDS011;62150;43.582;1.456;2024-03-06T12:35:23;7.83;;;2.20;;
17496;SDS011;62150;43.582;1.456;2024-03-06T12:37:51;6.20;;;1.93;;
17496;SDS011;62150;43.582;1.456;2024-03-06T12:40:19;7.60;;;2.23;;
17496;SDS011;62150;43.582;1.456;2024-03-06T12:42:48;8.93;;;2.20;;
17496;SDS011;62150;43.582;1.456;2024-03-06T12:45:17;7.30;;;2.27;;
17496;SDS011;62150;43.582;1.456;2024-03-06T12:47:45;6.53;;;2.10;;
17496;SDS011;62150;43.582;1.456;2024-03-06T12:50:14;5.50;;;2.20;;
17496;SDS011;62150;43.582;1.456;2024-03-06T12:52:42;6.13;;;2.10;;
17496;SDS011;62150;43.582;1.456;2024-03-06T12:55:11;7.20;;;2.10;;
17496;SDS011;62150;43.582;1.456;2024-03-06T12:57:38;7.97;;;2.00;;
17496;SDS011;62150;43.582;1.456;2024-03-06T13:00:09;9.53;;;3.07;;
17496;SDS011;62150;43.582;1.456;2024-03-06T13:02:40;5.63;;;2.10;;
17496;SDS011;62150;43.582;1.456;2024-03-06T13:05:09;9.27;;;2.33;;
17496;SDS011;62150;43.582;1.456;2024-03-06T13:07:38;7.13;;;2.63;;
17496;SDS011;62150;43.582;1.456;2024-03-06T13:10:07;5.07;;;2.33;;
17496;SDS011;62150;43.582;1.456;2024-03-06T13:12:36;6.27;;;2.10;;
17496;SDS011;62150;43.582;1.456;2024-03-06T13:15:04;8.23;;;2.10;;
17496;SDS011;62150;43.582;1.456;2024-03-06T13:17:34;8.20;;;2.13;;
17496;SDS011;62150;43.582;1.456;2024-03-06T13:20:02;4.90;;;2.07;;
17496;SDS011;62150;43.582;1.456;2024-03-06T13:22:34;5.17;;;1.90;;
17496;SDS011;62150;43.582;1.456;2024-03-06T13:25:01;6.10;;;1.90;;
17496;SDS011;62150;43.582;1.456;2024-03-06T13:27:30;5.27;;;1.90;;
17496;SDS011;62150;43.582;1.456;2024-03-06T13:29:57;7.77;;;2.20;;
17496;SDS011;62150;43.582;1.456;2024-03-06T13:32:25;10.73;;;2.20;;
17496;SDS011;62150;43.582;1.456;2024-03-06T13:34:54;6.40;;;1.80;;
17496;SDS011;62150;43.582;1.456;2024-03-06T13:37:22;7.13;;;2.03;;
17496;SDS011;62150;43.582;1.456;2024-03-06T13:39:49;9.87;;;2.30;;
17496;SDS011;62150;43.582;1.456;2024-03-06T13:42:17;6.60;;;1.93;;
17496;SDS011;62150;43.582;1.456;2024-03-06T13:44:45;6.50;;;2.53;;
17496;SDS011;62150;43.582;1.456;2024-03-06T13:47:14;7.60;;;2.10;;
17496;SDS011;62150;43.582;1.456;2024-03-06T13:49:43;7.43;;;2.20;;
17496;SDS011;62150;43.582;1.456;2024-03-06T13:52:12;7.33;;;2.40;;
17496;SDS011;62150;43.582;1.456;2024-03-06T13:54:41;7.70;;;2.83;;
17496;SDS011;62150;43.582;1.456;2024-03-06T13:57:09;6.80;;;2.10;;
17496;SDS011;62150;43.582;1.456;2024-03-06T13:59:37;6.80;;;2.30;;
17496;SDS011;62150;43.582;1.456;2024-03-06T14:02:05;7.67;;;2.30;;
17496;SDS011;62150;43.582;1.456;2024-03-06T14:04:33;5.63;;;2.17;;
17496;SDS011;62150;43.582;1.456;2024-03-06T14:07:01;7.97;;;2.27;;
17496;SDS011;62150;43.582;1.456;2024-03-06T14:09:30;5.33;;;2.20;;
17496;SDS011;62150;43.582;1.456;2024-03-06T14:11:58;6.43;;;2.00;;
17496;SDS011;62150;43.582;1.456;2024-03-06T14:14:25;6.17;;;2.00;;
17496;SDS011;62150;43.582;1.456;2024-03-06T14:16:55;7.40;;;2.20;;
17496;SDS011;62150;43.582;1.456;2024-03-06T14:19:23;7.83;;;1.80;;
17496;SDS011;62150;43.582;1.456;2024-03-06T14:21:51;11.10;;;2.00;;
17496;SDS011;62150;43.582;1.456;2024-03-06T14:24:18;8.47;;;2.23;;
17496;SDS011;62150;43.582;1.456;2024-03-06T14:26:47;6.80;;;1.93;;
17496;SDS011;62150;43.582;1.456;2024-03-06T14:29:15;6.80;;;2.10;;
17496;SDS011;62150;43.582;1.456;2024-03-06T14:31:43;5.80;;;2.10;;
17496;SDS011;62150;43.582;1.456;2024-03-06T14:34:10;5.83;;;1.90;;
17496;SDS011;62150;43.582;1.456;2024-03-06T14:36:39;4.33;;;1.80;;
17496;SDS011;62150;43.582;1.456;2024-03-06T14:39:07;6.50;;;2.03;;
17496;SDS011;62150;43.582;1.456;2024-03-06T14:41:35;8.00;;;1.87;;
17496;SDS011;62150;43.582;1.456;2024-03-06T14:44:04;7.30;;;1.90;;
17496;SDS011;62150;43.582;1.456;2024-03-06T14:46:32;7.67;;;1.60;;
17496;SDS011;62150;43.582;1.456;2024-03-06T14:48:59;7.37;;;2.03;;
17496;SDS011;62150;43.582;1.456;2024-03-06T14:51:27;6.93;;;1.73;;
17496;SDS011;62150;43.582;1.456;2024-03-06T14:53:55;5.87;;;1.67;;
17496;SDS011;62150;43.582;1.456;2024-03-06T14:56:22;4.37;;;1.60;;
17496;SDS011;62150;43.582;1.456;2024-03-06T14:58:50;6.67;;;1.70;;
17496;SDS011;62150;43.582;1.456;2024-03-06T15:01:19;5.10;;;1.70;;
17496;SDS011;62150;43.582;1.456;2024-03-06T15:03:46;4.43;;;1.50;;
17496;SDS011;62150;43.582;1.456;2024-03-06T15:06:14;6.77;;;1.93;;
17496;SDS011;62150;43.582;1.456;2024-03-06T15:08:41;5.87;;;1.80;;
17496;SDS011;62150;43.582;1.456;2024-03-06T15:11:10;7.73;;;1.90;;
17496;SDS011;62150;43.582;1.456;2024-03-06T15:13:37;5.97;;;1.60;;
17496;SDS011;62150;43.582;1.456;2024-03-06T15:16:05;5.63;;;1.77;;
17496;SDS011;62150;43.582;1.456;2024-03-06T15:18:35;4.97;;;1.90;;
17496;SDS011;62150;43.582;1.456;2024-03-06T15:21:02;6.53;;;1.90;;
17496;SDS011;62150;43.582;1.456;2024-03-06T15:23:30;7.93;;;1.90;;
17496;SDS011;62150;43.582;1.456;2024-03-06T15:25:58;7.27;;;1.67;;
17496;SDS011;62150;43.582;1.456;2024-03-06T15:28:25;4.27;;;1.40;;
17496;SDS011;62150;43.582;1.456;2024-03-06T15:30:53;7.63;;;1.70;;
17496;SDS011;62150;43.582;1.456;2024-03-06T15:33:21;6.03;;;1.70;;
17496;SDS011;62150;43.582;1.456;2024-03-06T15:35:51;6.47;;;1.77;;
17496;SDS011;62150;43.582;1.456;2024-03-06T15:38:18;4.10;;;1.63;;
17496;SDS011;62150;43.582;1.456;2024-03-06T15:40:46;7.03;;;1.70;;
17496;SDS011;62150;43.582;1.456;2024-03-06T15:43:15;4.10;;;1.60;;
17496;SDS011;62150;43.582;1.456;2024-03-06T15:45:43;7.17;;;1.70;;
17496;SDS011;62150;43.582;1.456;2024-03-06T15:48:11;3.67;;;1.50;;
17496;SDS011;62150;43.582;1.456;2024-03-06T15:50:39;4.70;;;1.90;;
17496;SDS011;62150;43.582;1.456;2024-03-06T15:53:08;4.27;;;1.63;;
17496;SDS011;62150;43.582;1.456;2024-03-06T15:55:36;6.87;;;1.70;;
17496;SDS011;62150;43.582;1.456;2024-03-06T15:58:04;4.53;;;2.00;;
17496;SDS011;62150;43.582;1.456;2024-03-06T16:00:32;4.20;;;1.73;;
17496;SDS011;62150;43.582;1.456;2024-03-06T16:03:00;5.83;;;1.80;;
17496;SDS011;62150;43.582;1.456;2024-03-06T16:05:27;5.40;;;1.83;;
17496;SDS011;62150;43.582;1.456;2024-03-06T16:07:56;8.33;;;2.17;;
17496;SDS011;62150;43.582;1.456;2024-03-06T16:10:28;7.63;;;2.50;;
17496;SDS011;62150;43.582;1.456;2024-03-06T16:12:56;4.63;;;1.83;;
17496;SDS011;62150;43.582;1.456;2024-03-06T16:15:23;5.80;;;1.90;;
17496;SDS011;62150;43.582;1.456;2024-03-06T16:17:51;6.13;;;2.67;;
17496;SDS011;62150;43.582;1.456;2024-03-06T16:20:18;3.40;;;1.90;;
17496;SDS011;62150;43.582;1.456;2024-03-06T16:22:46;5.43;;;1.70;;
17496;SDS011;62150;43.582;1.456;2024-03-06T16:25:13;3.53;;;1.60;;
17496;SDS011;62150;43.582;1.456;2024-03-06T16:27:42;6.20;;;2.17;;
17496;SDS011;62150;43.582;1.456;2024-03-06T16:30:10;4.30;;;1.70;;
17496;SDS011;62150;43.582;1.456;2024-03-06T16:32:39;4.83;;;1.60;;
17496;SDS011;62150;43.582;1.456;2024-03-06T16:35:07;7.10;;;1.97;;
17496;SDS011;62150;43.582;1.456;2024-03-06T16:37:35;7.53;;;2.20;;
17496;SDS011;62150;43.582;1.456;2024-03-06T16:40:03;5.73;;;1.80;;
17496;SDS011;62150;43.582;1.456;2024-03-06T16:42:32;4.63;;;1.63;;
17496;SDS011;62150;43.582;1.456;2024-03-06T16:45:01;7.60;;;1.80;;
17496;SDS011;62150;43.582;1.456;2024-03-06T16:47:29;3.50;;;1.50;;
17496;SDS011;62150;43.582;1.456;2024-03-06T16:49:56;2.37;;;1.50;;
17496;SDS011;62150;43.582;1.456;2024-03-06T16:52:24;4.47;;;1.80;;
17496;SDS011;62150;43.582;1.456;2024-03-06T16:54:51;3.50;;;1.43;;
17496;SDS011;62150;43.582;1.456;2024-03-06T16:57:19;3.33;;;1.50;;
17496;SDS011;62150;43.582;1.456;2024-03-06T16:59:46;3.63;;;1.40;;
17496;SDS011;62150;43.582;1.456;2024-03-06T17:02:15;5.60;;;1.57;;
17496;SDS011;62150;43.582;1.456;2024-03-06T17:04:43;5.33;;;1.70;;
17496;SDS011;62150;43.582;1.456;2024-03-06T17:07:10;4.63;;;1.63;;
17496;SDS011;62150;43.582;1.456;2024-03-06T17:09:38;5.03;;;1.70;;
17496;SDS011;62150;43.582;1.456;2024-03-06T17:12:06;4.80;;;1.60;;
17496;SDS011;62150;43.582;1.456;2024-03-06T17:14:33;4.87;;;1.80;;
17496;SDS011;62150;43.582;1.456;2024-03-06T17:17:03;3.37;;;1.50;;
17496;SDS011;62150;43.582;1.456;2024-03-06T17:19:33;6.47;;;1.80;;
17496;SDS011;62150;43.582;1.456;2024-03-06T17:22:02;5.10;;;1.60;;
17496;SDS011;62150;43.582;1.456;2024-03-06T17:24:30;4.87;;;1.70;;
17496;SDS011;62150;43.582;1.456;2024-03-06T17:26:58;6.47;;;2.00;;
17496;SDS011;62150;43.582;1.456;2024-03-06T17:29:26;4.13;;;1.80;;
17496;SDS011;62150;43.582;1.456;2024-03-06T17:31:53;4.93;;;1.80;;
17496;SDS011;62150;43.582;1.456;2024-03-06T17:34:21;6.00;;;2.00;;
17496;SDS011;62150;43.582;1.456;2024-03-06T17:36:50;5.83;;;1.93;;
17496;SDS011;62150;43.582;1.456;2024-03-06T17:39:18;4.27;;;1.77;;
17496;SDS011;62150;43.582;1.456;2024-03-06T17:41:50;4.70;;;1.90;;
17496;SDS011;62150;43.582;1.456;2024-03-06T17:44:18;4.90;;;1.80;;
17496;SDS011;62150;43.582;1.456;2024-03-06T17:46:45;4.70;;;1.60;;
17496;SDS011;62150;43.582;1.456;2024-03-06T17:49:13;4.80;;;1.90;;
17496;SDS011;62150;43.582;1.456;2024-03-06T17:51:41;6.20;;;1.90;;
17496;SDS011;62150;43.582;1.456;2024-03-06T17:54:10;8.63;;;2.20;;
17496;SDS011;62150;43.582;1.456;2024-03-06T17:56:40;6.63;;;2.30;;
17496;SDS011;62150;43.582;1.456;2024-03-06T17:59:08;5.60;;;2.10;;
17496;SDS011;62150;43.582;1.456;2024-03-06T18:01:36;4.43;;;1.93;;
17496;SDS011;62150;43.582;1.456;2024-03-06T18:04:03;5.93;;;2.23;;
17496;SDS011;62150;43.582;1.456;2024-03-06T18:06:31;8.10;;;2.10;;
17496;SDS011;62150;43.582;1.456;2024-03-06T18:08:59;6.23;;;2.40;;
17496;SDS011;62150;43.582;1.456;2024-03-06T18:11:29;8.47;;;2.70;;
17496;SDS011;62150;43.582;1.456;2024-03-06T18:13:57;8.17;;;2.60;;
17496;SDS011;62150;43.582;1.456;2024-03-06T18:16:24;8.63;;;2.60;;
17496;SDS011;62150;43.582;1.456;2024-03-06T18:18:52;8.17;;;2.97;;
17496;SDS011;62150;43.582;1.456;2024-03-06T18:21:19;8.63;;;3.00;;
17496;SDS011;62150;43.582;1.456;2024-03-06T18:23:47;9.00;;;2.70;;
17496;SDS011;62150;43.582;1.456;2024-03-06T18:26:18;9.10;;;2.63;;
17496;SDS011;62150;43.582;1.456;2024-03-06T18:28:48;8.37;;;2.63;;
17496;SDS011;62150;43.582;1.456;2024-03-06T18:31:15;7.40;;;3.00;;
17496;SDS011;62150;43.582;1.456;2024-03-06T18:33:43;9.13;;;3.13;;
17496;SDS011;62150;43.582;1.456;2024-03-06T18:36:11;8.37;;;3.03;;
17496;SDS011;62150;43.582;1.456;2024-03-06T18:38:38;8.43;;;2.90;;
17496;SDS011;62150;43.582;1.456;2024-03-06T18:41:09;10.77;;;2.90;;
17496;SDS011;62150;43.582;1.456;2024-03-06T18:43:37;9.93;;;3.00;;
17496;SDS011;62150;43.582;1.456;2024-03-06T18:46:06;9.17;;;3.03;;
17496;SDS011;62150;43.582;1.456;2024-03-06T18:48:34;6.93;;;2.90;;
17496;SDS011;62150;43.582;1.456;2024-03-06T18:51:01;8.77;;;2.83;;
17496;SDS011;62150;43.582;1.456;2024-03-06T18:53:29;7.07;;;2.60;;
17496;SDS011;62150;43.582;1.456;2024-03-06T18:55:57;7.30;;;2.67;;
17496;SDS011;62150;43.582;1.456;2024-03-06T18:58:24;8.87;;;2.90;;
17496;SDS011;62150;43.582;1.456;2024-03-06T19:00:52;6.33;;;2.50;;
17496;SDS011;62150;43.582;1.456;2024-03-06T19:03:21;7.40;;;2.60;;
17496;SDS011;62150;43.582;1.456;2024-03-06T19:05:49;5.13;;;2.40;;
17496;SDS011;62150;43.582;1.456;2024-03-06T19:08:16;5.63;;;2.60;;
17496;SDS011;62150;43.582;1.456;2024-03-06T19:10:44;8.07;;;2.43;;
17496;SDS011;62150;43.582;1.456;2024-03-06T19:13:11;6.27;;;2.50;;
17496;SDS011;62150;43.582;1.456;2024-03-06T19:15:39;6.60;;;2.50;;
17496;SDS011;62150;43.582;1.456;2024-03-06T19:18:06;5.93;;;2.57;;
17496;SDS011;62150;43.582;1.456;2024-03-06T19:20:36;7.43;;;2.70;;
17496;SDS011;62150;43.582;1.456;2024-03-06T19:23:04;7.33;;;2.87;;
17496;SDS011;62150;43.582;1.456;2024-03-06T19:25:32;9.00;;;3.20;;
17496;SDS011;62150;43.582;1.456;2024-03-06T19:27:59;6.73;;;3.00;;
17496;SDS011;62150;43.582;1.456;2024-03-06T19:30:28;8.40;;;3.67;;
17496;SDS011;62150;43.582;1.456;2024-03-06T19:32:55;9.57;;;3.60;;
17496;SDS011;62150;43.582;1.456;2024-03-06T19:35:23;9.43;;;4.20;;
17496;SDS011;62150;43.582;1.456;2024-03-06T19:37:52;10.03;;;4.23;;
17496;SDS011;62150;43.582;1.456;2024-03-06T19:40:20;9.87;;;4.53;;
17496;SDS011;62150;43.582;1.456;2024-03-06T19:42:47;10.97;;;4.60;;
17496;SDS011;62150;43.582;1.456;2024-03-06T19:45:15;11.10;;;4.50;;